sensor_id;sensor_type;location;lat;lon;timestamp;P1;durP1;ratioP1;P2;durP2;ratioP2
26106;SDS011;13866;50.748;12.630;2023-05-20T00:02:09;9.57;;;8.77;;
26106;SDS011;13866;50.748;12.630;2023-05-20T00:04:34;10.60;;;9.57;;
26106;SDS011;13866;50.748;12.630;2023-05-20T00:07:00;10.70;;;9.77;;
26106;SDS011;13866;50.748;12.630;2023-05-20T00:09:25;13.83;;;10.13;;
26106;SDS011;13866;50.748;12.630;2023-05-20T00:11:51;10.73;;;9.73;;
26106;SDS011;13866;50.748;12.630;2023-05-20T00:14:16;10.93;;;10.10;;
26106;SDS011;13866;50.748;12.630;2023-05-20T00:16:42;12.20;;;11.10;;
26106;SDS011;13866;50.748;12.630;2023-05-20T00:19:07;11.00;;;10.17;;
26106;SDS011;13866;50.748;12.630;2023-05-20T00:21:33;11.83;;;10.00;;
26106;SDS011;13866;50.748;12.630;2023-05-20T00:23:58;11.60;;;10.60;;
26106;SDS011;13866;50.748;12.630;2023-05-20T00:26:24;10.80;;;9.90;;
26106;SDS011;13866;50.748;12.630;2023-05-20T00:28:50;13.00;;;11.07;;
26106;SDS011;13866;50.748;12.630;2023-05-20T00:31:15;14.93;;;11.50;;
26106;SDS011;13866;50.748;12.630;2023-05-20T00:33:41;11.83;;;10.70;;
26106;SDS011;13866;50.748;12.630;2023-05-20T00:36:06;11.20;;;10.20;;
26106;SDS011;13866;50.748;12.630;2023-05-20T00:38:32;12.13;;;11.13;;
26106;SDS011;13866;50.748;12.630;2023-05-20T00:40:58;15.17;;;12.60;;
26106;SDS011;13866;50.748;12.630;2023-05-20T00:43:24;12.97;;;11.37;;
26106;SDS011;13866;50.748;12.630;2023-05-20T00:45:51;14.40;;;13.00;;
26106;SDS011;13866;50.748;12.630;2023-05-20T00:48:17;13.33;;;11.80;;
26106;SDS011;13866;50.748;12.630;2023-05-20T00:50:45;13.30;;;12.00;;
26106;SDS011;13866;50.748;12.630;2023-05-20T00:53:11;18.77;;;13.80;;
26106;SDS011;13866;50.748;12.630;2023-05-20T00:55:37;12.53;;;11.63;;
26106;SDS011;13866;50.748;12.630;2023-05-20T00:58:03;15.87;;;13.33;;
26106;SDS011;13866;50.748;12.630;2023-05-20T01:00:28;14.90;;;12.93;;
26106;SDS011;13866;50.748;12.630;2023-05-20T01:02:54;14.20;;;12.93;;
26106;SDS011;13866;50.748;12.630;2023-05-20T01:05:20;14.50;;;13.07;;
26106;SDS011;13866;50.748;12.630;2023-05-20T01:07:46;12.10;;;11.20;;
26106;SDS011;13866;50.748;12.630;2023-05-20T01:10:11;15.00;;;12.63;;
26106;SDS011;13866;50.748;12.630;2023-05-20T01:12:49;15.17;;;13.93;;
26106;SDS011;13866;50.748;12.630;2023-05-20T01:15:20;14.77;;;13.30;;
26106;SDS011;13866;50.748;12.630;2023-05-20T01:17:48;15.07;;;13.70;;
26106;SDS011;13866;50.748;12.630;2023-05-20T01:20:16;14.80;;;13.50;;
26106;SDS011;13866;50.748;12.630;2023-05-20T01:22:48;13.57;;;12.17;;
26106;SDS011;13866;50.748;12.630;2023-05-20T01:25:17;18.80;;;14.50;;
26106;SDS011;13866;50.748;12.630;2023-05-20T01:27:42;15.77;;;14.23;;
26106;SDS011;13866;50.748;12.630;2023-05-20T01:30:08;20.33;;;13.43;;
26106;SDS011;13866;50.748;12.630;2023-05-20T01:32:40;19.17;;;16.00;;
26106;SDS011;13866;50.748;12.630;2023-05-20T01:35:09;16.83;;;15.27;;
26106;SDS011;13866;50.748;12.630;2023-05-20T01:37:35;20.03;;;14.93;;
26106;SDS011;13866;50.748;12.630;2023-05-20T01:40:04;16.50;;;14.70;;
26106;SDS011;13866;50.748;12.630;2023-05-20T01:42:32;18.23;;;14.53;;
26106;SDS011;13866;50.748;12.630;2023-05-20T01:44:58;18.43;;;16.53;;
26106;SDS011;13866;50.748;12.630;2023-05-20T01:47:24;15.10;;;13.50;;
26106;SDS011;13866;50.748;12.630;2023-05-20T01:49:49;19.67;;;16.43;;
26106;SDS011;13866;50.748;12.630;2023-05-20T01:52:18;16.93;;;15.13;;
26106;SDS011;13866;50.748;12.630;2023-05-20T01:54:44;19.33;;;15.80;;
26106;SDS011;13866;50.748;12.630;2023-05-20T01:57:14;18.30;;;16.30;;
26106;SDS011;13866;50.748;12.630;2023-05-20T01:59:43;18.30;;;16.50;;
26106;SDS011;13866;50.748;12.630;2023-05-20T02:02:09;17.27;;;15.53;;
26106;SDS011;13866;50.748;12.630;2023-05-20T02:04:47;18.70;;;15.27;;
26106;SDS011;13866;50.748;12.630;2023-05-20T02:07:14;17.50;;;15.90;;
26106;SDS011;13866;50.748;12.630;2023-05-20T02:09:42;23.63;;;16.17;;
26106;SDS011;13866;50.748;12.630;2023-05-20T02:12:08;17.53;;;15.83;;
26106;SDS011;13866;50.748;12.630;2023-05-20T02:14:40;19.60;;;17.23;;
26106;SDS011;13866;50.748;12.630;2023-05-20T02:17:05;17.67;;;15.77;;
26106;SDS011;13866;50.748;12.630;2023-05-20T02:19:31;18.70;;;17.00;;
26106;SDS011;13866;50.748;12.630;2023-05-20T02:21:56;20.00;;;16.73;;
26106;SDS011;13866;50.748;12.630;2023-05-20T02:24:22;17.23;;;15.43;;
26106;SDS011;13866;50.748;12.630;2023-05-20T02:26:47;19.50;;;17.60;;
26106;SDS011;13866;50.748;12.630;2023-05-20T02:29:17;18.80;;;16.47;;
26106;SDS011;13866;50.748;12.630;2023-05-20T02:31:45;17.17;;;15.60;;
26106;SDS011;13866;50.748;12.630;2023-05-20T02:34:11;17.27;;;15.67;;
26106;SDS011;13866;50.748;12.630;2023-05-20T02:36:37;19.73;;;16.87;;
26106;SDS011;13866;50.748;12.630;2023-05-20T02:39:02;18.83;;;16.83;;
26106;SDS011;13866;50.748;12.630;2023-05-20T02:41:28;20.60;;;18.00;;
26106;SDS011;13866;50.748;12.630;2023-05-20T02:43:53;22.10;;;18.63;;
26106;SDS011;13866;50.748;12.630;2023-05-20T02:46:19;21.37;;;19.10;;
26106;SDS011;13866;50.748;12.630;2023-05-20T02:48:44;19.53;;;17.53;;
26106;SDS011;13866;50.748;12.630;2023-05-20T02:51:10;23.40;;;18.60;;
26106;SDS011;13866;50.748;12.630;2023-05-20T02:53:35;24.23;;;19.13;;
26106;SDS011;13866;50.748;12.630;2023-05-20T02:56:02;20.17;;;18.13;;
26106;SDS011;13866;50.748;12.630;2023-05-20T02:58:28;23.00;;;18.70;;
26106;SDS011;13866;50.748;12.630;2023-05-20T03:00:54;19.90;;;17.93;;
26106;SDS011;13866;50.748;12.630;2023-05-20T03:03:21;21.70;;;19.37;;
26106;SDS011;13866;50.748;12.630;2023-05-20T03:05:47;19.90;;;17.97;;
26106;SDS011;13866;50.748;12.630;2023-05-20T03:08:14;26.50;;;19.70;;
26106;SDS011;13866;50.748;12.630;2023-05-20T03:10:39;26.40;;;19.50;;
26106;SDS011;13866;50.748;12.630;2023-05-20T03:13:05;25.33;;;21.17;;
26106;SDS011;13866;50.748;12.630;2023-05-20T03:15:35;24.67;;;20.00;;
26106;SDS011;13866;50.748;12.630;2023-05-20T03:18:04;27.23;;;18.90;;
26106;SDS011;13866;50.748;12.630;2023-05-20T03:20:30;20.47;;;18.50;;
26106;SDS011;13866;50.748;12.630;2023-05-20T03:23:00;24.33;;;18.63;;
26106;SDS011;13866;50.748;12.630;2023-05-20T03:25:27;23.23;;;19.97;;
26106;SDS011;13866;50.748;12.630;2023-05-20T03:27:52;22.30;;;18.93;;
26106;SDS011;13866;50.748;12.630;2023-05-20T03:30:18;24.43;;;21.50;;
26106;SDS011;13866;50.748;12.630;2023-05-20T03:32:44;24.40;;;20.33;;
26106;SDS011;13866;50.748;12.630;2023-05-20T03:35:10;23.20;;;20.30;;
26106;SDS011;13866;50.748;12.630;2023-05-20T03:37:35;21.53;;;19.40;;
26106;SDS011;13866;50.748;12.630;2023-05-20T03:40:01;24.53;;;21.43;;
26106;SDS011;13866;50.748;12.630;2023-05-20T03:42:30;23.10;;;20.67;;
26106;SDS011;13866;50.748;12.630;2023-05-20T03:44:58;23.47;;;19.57;;
26106;SDS011;13866;50.748;12.630;2023-05-20T03:47:24;25.20;;;20.43;;
26106;SDS011;13866;50.748;12.630;2023-05-20T03:49:50;27.20;;;19.70;;
26106;SDS011;13866;50.748;12.630;2023-05-20T03:52:16;24.90;;;19.70;;
26106;SDS011;13866;50.748;12.630;2023-05-20T03:54:41;24.93;;;19.67;;
26106;SDS011;13866;50.748;12.630;2023-05-20T03:57:07;22.97;;;19.90;;
26106;SDS011;13866;50.748;12.630;2023-05-20T03:59:34;22.90;;;17.63;;
26106;SDS011;13866;50.748;12.630;2023-05-20T04:02:00;21.47;;;16.97;;
26106;SDS011;13866;50.748;12.630;2023-05-20T04:04:26;20.20;;;18.30;;
26106;SDS011;13866;50.748;12.630;2023-05-20T04:06:52;22.87;;;19.10;;
26106;SDS011;13866;50.748;12.630;2023-05-20T04:09:18;25.63;;;18.00;;
26106;SDS011;13866;50.748;12.630;2023-05-20T04:11:44;22.40;;;18.40;;
26106;SDS011;13866;50.748;12.630;2023-05-20T04:14:09;21.17;;;18.97;;
26106;SDS011;13866;50.748;12.630;2023-05-20T04:16:35;20.80;;;18.77;;
26106;SDS011;13866;50.748;12.630;2023-05-20T04:19:01;20.43;;;18.33;;
26106;SDS011;13866;50.748;12.630;2023-05-20T04:21:27;20.63;;;18.70;;
26106;SDS011;13866;50.748;12.630;2023-05-20T04:23:52;22.33;;;18.80;;
26106;SDS011;13866;50.748;12.630;2023-05-20T04:26:18;24.40;;;20.90;;
26106;SDS011;13866;50.748;12.630;2023-05-20T04:28:44;20.60;;;18.57;;
26106;SDS011;13866;50.748;12.630;2023-05-20T04:31:12;18.83;;;16.83;;
26106;SDS011;13866;50.748;12.630;2023-05-20T04:33:38;24.30;;;17.77;;
26106;SDS011;13866;50.748;12.630;2023-05-20T04:36:05;22.53;;;20.13;;
26106;SDS011;13866;50.748;12.630;2023-05-20T04:38:31;21.20;;;19.10;;
26106;SDS011;13866;50.748;12.630;2023-05-20T04:41:00;21.63;;;19.47;;
26106;SDS011;13866;50.748;12.630;2023-05-20T04:43:26;22.37;;;18.57;;
26106;SDS011;13866;50.748;12.630;2023-05-20T04:45:56;20.87;;;18.77;;
26106;SDS011;13866;50.748;12.630;2023-05-20T04:48:23;21.00;;;19.03;;
26106;SDS011;13866;50.748;12.630;2023-05-20T04:50:49;24.37;;;20.27;;
26106;SDS011;13866;50.748;12.630;2023-05-20T04:53:16;20.97;;;18.87;;
26106;SDS011;13866;50.748;12.630;2023-05-20T04:55:42;21.80;;;19.20;;
26106;SDS011;13866;50.748;12.630;2023-05-20T04:58:08;22.23;;;20.03;;
26106;SDS011;13866;50.748;12.630;2023-05-20T05:00:40;20.90;;;18.90;;
26106;SDS011;13866;50.748;12.630;2023-05-20T05:03:06;29.13;;;21.30;;
26106;SDS011;13866;50.748;12.630;2023-05-20T05:05:33;30.90;;;21.77;;
26106;SDS011;13866;50.748;12.630;2023-05-20T05:08:00;24.10;;;20.17;;
26106;SDS011;13866;50.748;12.630;2023-05-20T05:10:25;23.47;;;21.03;;
26106;SDS011;13866;50.748;12.630;2023-05-20T05:12:50;24.13;;;21.23;;
26106;SDS011;13866;50.748;12.630;2023-05-20T05:15:16;25.13;;;21.13;;
26106;SDS011;13866;50.748;12.630;2023-05-20T05:17:41;23.27;;;20.47;;
26106;SDS011;13866;50.748;12.630;2023-05-20T05:20:07;25.60;;;22.80;;
26106;SDS011;13866;50.748;12.630;2023-05-20T05:22:33;21.63;;;19.40;;
26106;SDS011;13866;50.748;12.630;2023-05-20T05:25:01;24.03;;;21.53;;
26106;SDS011;13866;50.748;12.630;2023-05-20T05:27:27;27.03;;;20.53;;
26106;SDS011;13866;50.748;12.630;2023-05-20T05:29:52;24.57;;;20.77;;
26106;SDS011;13866;50.748;12.630;2023-05-20T05:32:18;26.20;;;21.73;;
26106;SDS011;13866;50.748;12.630;2023-05-20T05:34:44;24.53;;;20.40;;
26106;SDS011;13866;50.748;12.630;2023-05-20T05:37:09;24.47;;;21.97;;
26106;SDS011;13866;50.748;12.630;2023-05-20T05:39:34;24.37;;;21.23;;
26106;SDS011;13866;50.748;12.630;2023-05-20T05:42:01;22.37;;;19.97;;
26106;SDS011;13866;50.748;12.630;2023-05-20T05:44:27;24.13;;;20.90;;
26106;SDS011;13866;50.748;12.630;2023-05-20T05:46:53;25.47;;;21.27;;
26106;SDS011;13866;50.748;12.630;2023-05-20T05:49:18;25.50;;;22.70;;
26106;SDS011;13866;50.748;12.630;2023-05-20T05:51:44;27.07;;;24.27;;
26106;SDS011;13866;50.748;12.630;2023-05-20T05:54:09;23.97;;;21.53;;
26106;SDS011;13866;50.748;12.630;2023-05-20T05:56:35;25.70;;;22.33;;
26106;SDS011;13866;50.748;12.630;2023-05-20T05:59:00;26.60;;;22.83;;
26106;SDS011;13866;50.748;12.630;2023-05-20T06:01:26;25.73;;;22.27;;
26106;SDS011;13866;50.748;12.630;2023-05-20T06:03:51;25.07;;;22.43;;
26106;SDS011;13866;50.748;12.630;2023-05-20T06:06:17;24.20;;;21.90;;
26106;SDS011;13866;50.748;12.630;2023-05-20T06:08:43;25.63;;;21.60;;
26106;SDS011;13866;50.748;12.630;2023-05-20T06:11:08;29.80;;;23.67;;
26106;SDS011;13866;50.748;12.630;2023-05-20T06:13:34;24.27;;;21.73;;
26106;SDS011;13866;50.748;12.630;2023-05-20T06:16:00;25.30;;;21.03;;
26106;SDS011;13866;50.748;12.630;2023-05-20T06:18:25;27.43;;;24.47;;
26106;SDS011;13866;50.748;12.630;2023-05-20T06:20:55;25.40;;;22.20;;
26106;SDS011;13866;50.748;12.630;2023-05-20T06:23:21;28.07;;;22.50;;
26106;SDS011;13866;50.748;12.630;2023-05-20T06:25:46;27.07;;;24.17;;
26106;SDS011;13866;50.748;12.630;2023-05-20T06:28:13;25.70;;;22.93;;
26106;SDS011;13866;50.748;12.630;2023-05-20T06:30:39;26.13;;;22.57;;
26106;SDS011;13866;50.748;12.630;2023-05-20T06:33:05;29.17;;;24.50;;
26106;SDS011;13866;50.748;12.630;2023-05-20T06:35:30;26.87;;;24.17;;
26106;SDS011;13866;50.748;12.630;2023-05-20T06:37:58;29.00;;;24.47;;
26106;SDS011;13866;50.748;12.630;2023-05-20T06:40:25;30.53;;;26.30;;
26106;SDS011;13866;50.748;12.630;2023-05-20T06:42:51;28.70;;;25.20;;
26106;SDS011;13866;50.748;12.630;2023-05-20T06:45:16;28.60;;;24.80;;
26106;SDS011;13866;50.748;12.630;2023-05-20T06:47:42;27.50;;;24.60;;
26106;SDS011;13866;50.748;12.630;2023-05-20T06:50:08;27.90;;;24.10;;
26106;SDS011;13866;50.748;12.630;2023-05-20T06:52:34;25.83;;;23.20;;
26106;SDS011;13866;50.748;12.630;2023-05-20T06:54:59;27.40;;;24.50;;
26106;SDS011;13866;50.748;12.630;2023-05-20T06:57:25;31.90;;;24.90;;
26106;SDS011;13866;50.748;12.630;2023-05-20T06:59:50;38.33;;;24.47;;
26106;SDS011;13866;50.748;12.630;2023-05-20T07:02:16;27.30;;;23.70;;
26106;SDS011;13866;50.748;12.630;2023-05-20T07:04:41;27.20;;;24.30;;
26106;SDS011;13866;50.748;12.630;2023-05-20T07:07:07;26.87;;;24.03;;
26106;SDS011;13866;50.748;12.630;2023-05-20T07:12:24;33.20;;;23.57;;
26106;SDS011;13866;50.748;12.630;2023-05-20T07:14:50;26.57;;;22.70;;
26106;SDS011;13866;50.748;12.630;2023-05-20T07:17:15;25.97;;;23.27;;
26106;SDS011;13866;50.748;12.630;2023-05-20T07:19:41;24.80;;;21.23;;
26106;SDS011;13866;50.748;12.630;2023-05-20T07:22:06;26.83;;;24.03;;
26106;SDS011;13866;50.748;12.630;2023-05-20T07:24:32;26.50;;;23.80;;
26106;SDS011;13866;50.748;12.630;2023-05-20T07:26:58;26.40;;;23.57;;
26106;SDS011;13866;50.748;12.630;2023-05-20T07:29:23;27.10;;;24.17;;
26106;SDS011;13866;50.748;12.630;2023-05-20T07:31:49;29.33;;;24.83;;
26106;SDS011;13866;50.748;12.630;2023-05-20T07:34:14;25.87;;;23.17;;
26106;SDS011;13866;50.748;12.630;2023-05-20T07:36:40;25.37;;;22.70;;
26106;SDS011;13866;50.748;12.630;2023-05-20T07:39:05;27.03;;;22.73;;
26106;SDS011;13866;50.748;12.630;2023-05-20T07:41:32;26.43;;;23.63;;
26106;SDS011;13866;50.748;12.630;2023-05-20T07:43:58;27.93;;;24.67;;
26106;SDS011;13866;50.748;12.630;2023-05-20T07:46:23;25.77;;;23.07;;
26106;SDS011;13866;50.748;12.630;2023-05-20T07:48:49;25.40;;;22.77;;
26106;SDS011;13866;50.748;12.630;2023-05-20T07:51:14;25.33;;;22.60;;
26106;SDS011;13866;50.748;12.630;2023-05-20T07:53:40;22.80;;;20.63;;
26106;SDS011;13866;50.748;12.630;2023-05-20T07:56:05;25.63;;;20.67;;
26106;SDS011;13866;50.748;12.630;2023-05-20T07:58:31;23.40;;;20.90;;
26106;SDS011;13866;50.748;12.630;2023-05-20T08:00:56;22.73;;;19.80;;
26106;SDS011;13866;50.748;12.630;2023-05-20T08:03:22;22.27;;;19.87;;
26106;SDS011;13866;50.748;12.630;2023-05-20T08:05:50;22.40;;;19.43;;
26106;SDS011;13866;50.748;12.630;2023-05-20T08:08:16;22.97;;;20.70;;
26106;SDS011;13866;50.748;12.630;2023-05-20T08:10:42;21.40;;;19.20;;
26106;SDS011;13866;50.748;12.630;2023-05-20T08:13:07;19.40;;;17.50;;
26106;SDS011;13866;50.748;12.630;2023-05-20T08:15:32;21.60;;;19.40;;
26106;SDS011;13866;50.748;12.630;2023-05-20T08:18:00;22.73;;;20.47;;
26106;SDS011;13866;50.748;12.630;2023-05-20T08:20:25;19.87;;;17.80;;
26106;SDS011;13866;50.748;12.630;2023-05-20T08:22:51;22.13;;;18.80;;
26106;SDS011;13866;50.748;12.630;2023-05-20T08:25:17;17.80;;;16.20;;
26106;SDS011;13866;50.748;12.630;2023-05-20T08:27:42;20.13;;;18.23;;
26106;SDS011;13866;50.748;12.630;2023-05-20T08:30:08;20.57;;;18.47;;
26106;SDS011;13866;50.748;12.630;2023-05-20T08:32:34;19.03;;;17.00;;
26106;SDS011;13866;50.748;12.630;2023-05-20T08:35:00;18.07;;;16.17;;
26106;SDS011;13866;50.748;12.630;2023-05-20T08:37:27;20.03;;;17.30;;
26106;SDS011;13866;50.748;12.630;2023-05-20T08:39:53;23.60;;;18.20;;
26106;SDS011;13866;50.748;12.630;2023-05-20T08:42:22;19.83;;;17.80;;
26106;SDS011;13866;50.748;12.630;2023-05-20T08:44:55;19.37;;;17.60;;
26106;SDS011;13866;50.748;12.630;2023-05-20T08:47:23;22.80;;;18.70;;
26106;SDS011;13866;50.748;12.630;2023-05-20T08:49:50;19.73;;;17.27;;
26106;SDS011;13866;50.748;12.630;2023-05-20T08:52:20;22.83;;;18.50;;
26106;SDS011;13866;50.748;12.630;2023-05-20T08:54:47;18.80;;;17.00;;
26106;SDS011;13866;50.748;12.630;2023-05-20T08:57:13;18.30;;;16.60;;
26106;SDS011;13866;50.748;12.630;2023-05-20T08:59:42;18.07;;;16.37;;
26106;SDS011;13866;50.748;12.630;2023-05-20T09:02:09;17.40;;;15.60;;
26106;SDS011;13866;50.748;12.630;2023-05-20T09:04:35;18.07;;;16.30;;
26106;SDS011;13866;50.748;12.630;2023-05-20T09:07:01;19.73;;;17.63;;
26106;SDS011;13866;50.748;12.630;2023-05-20T09:09:28;17.10;;;15.47;;
26106;SDS011;13866;50.748;12.630;2023-05-20T09:11:53;18.37;;;16.67;;
26106;SDS011;13866;50.748;12.630;2023-05-20T09:14:19;15.90;;;14.50;;
26106;SDS011;13866;50.748;12.630;2023-05-20T09:16:44;16.27;;;14.80;;
26106;SDS011;13866;50.748;12.630;2023-05-20T09:19:11;23.67;;;15.70;;
26106;SDS011;13866;50.748;12.630;2023-05-20T09:21:55;15.97;;;14.57;;
26106;SDS011;13866;50.748;12.630;2023-05-20T09:24:36;17.43;;;15.60;;
26106;SDS011;13866;50.748;12.630;2023-05-20T09:27:01;16.17;;;14.70;;
26106;SDS011;13866;50.748;12.630;2023-05-20T09:29:27;17.37;;;15.47;;
26106;SDS011;13866;50.748;12.630;2023-05-20T09:31:56;16.83;;;15.17;;
26106;SDS011;13866;50.748;12.630;2023-05-20T09:34:25;18.40;;;16.50;;
26106;SDS011;13866;50.748;12.630;2023-05-20T09:36:51;16.20;;;14.87;;
26106;SDS011;13866;50.748;12.630;2023-05-20T09:39:19;20.33;;;18.40;;
26106;SDS011;13866;50.748;12.630;2023-05-20T09:42:04;16.10;;;14.17;;
26106;SDS011;13866;50.748;12.630;2023-05-20T09:44:38;24.33;;;16.20;;
26106;SDS011;13866;50.748;12.630;2023-05-20T09:47:06;16.17;;;14.77;;
26106;SDS011;13866;50.748;12.630;2023-05-20T09:49:33;16.80;;;15.07;;
26106;SDS011;13866;50.748;12.630;2023-05-20T09:52:01;17.33;;;15.70;;
26106;SDS011;13866;50.748;12.630;2023-05-20T09:54:30;16.87;;;15.17;;
26106;SDS011;13866;50.748;12.630;2023-05-20T09:56:58;17.60;;;15.87;;
26106;SDS011;13866;50.748;12.630;2023-05-20T09:59:33;16.67;;;15.13;;
26106;SDS011;13866;50.748;12.630;2023-05-20T10:02:07;22.00;;;17.20;;
26106;SDS011;13866;50.748;12.630;2023-05-20T10:04:33;17.40;;;16.00;;
26106;SDS011;13866;50.748;12.630;2023-05-20T10:10:20;18.13;;;16.40;;
26106;SDS011;13866;50.748;12.630;2023-05-20T10:16:08;17.70;;;15.80;;
26106;SDS011;13866;50.748;12.630;2023-05-20T10:21:33;18.93;;;15.63;;
26106;SDS011;13866;50.748;12.630;2023-05-20T10:24:34;16.57;;;14.93;;
26106;SDS011;13866;50.748;12.630;2023-05-20T10:27:02;17.70;;;15.90;;
26106;SDS011;13866;50.748;12.630;2023-05-20T10:29:29;16.70;;;15.30;;
26106;SDS011;13866;50.748;12.630;2023-05-20T10:32:08;16.23;;;14.73;;
26106;SDS011;13866;50.748;12.630;2023-05-20T10:34:45;20.00;;;15.67;;
26106;SDS011;13866;50.748;12.630;2023-05-20T10:37:24;19.47;;;17.67;;
26106;SDS011;13866;50.748;12.630;2023-05-20T10:39:51;19.60;;;17.20;;
26106;SDS011;13866;50.748;12.630;2023-05-20T10:42:27;20.57;;;17.77;;
26106;SDS011;13866;50.748;12.630;2023-05-20T10:44:54;19.30;;;17.60;;
26106;SDS011;13866;50.748;12.630;2023-05-20T10:47:19;18.10;;;16.00;;
26106;SDS011;13866;50.748;12.630;2023-05-20T10:52:55;17.20;;;15.50;;
26106;SDS011;13866;50.748;12.630;2023-05-20T10:56:03;17.97;;;16.23;;
26106;SDS011;13866;50.748;12.630;2023-05-20T10:58:37;19.10;;;17.30;;
26106;SDS011;13866;50.748;12.630;2023-05-20T11:01:03;20.27;;;17.57;;
26106;SDS011;13866;50.748;12.630;2023-05-20T11:03:31;24.47;;;15.73;;
26106;SDS011;13866;50.748;12.630;2023-05-20T11:06:17;16.87;;;15.23;;
26106;SDS011;13866;50.748;12.630;2023-05-20T11:08:43;17.00;;;15.30;;
26106;SDS011;13866;50.748;12.630;2023-05-20T11:11:10;16.57;;;15.27;;
26106;SDS011;13866;50.748;12.630;2023-05-20T11:14:02;19.47;;;17.80;;
26106;SDS011;13866;50.748;12.630;2023-05-20T11:16:27;18.97;;;17.37;;
26106;SDS011;13866;50.748;12.630;2023-05-20T11:18:59;20.33;;;18.37;;
26106;SDS011;13866;50.748;12.630;2023-05-20T11:21:24;18.70;;;17.00;;
26106;SDS011;13866;50.748;12.630;2023-05-20T11:23:50;17.57;;;16.17;;
26106;SDS011;13866;50.748;12.630;2023-05-20T11:29:33;15.83;;;14.57;;
26106;SDS011;13866;50.748;12.630;2023-05-20T11:31:59;22.20;;;16.63;;
26106;SDS011;13866;50.748;12.630;2023-05-20T11:34:25;18.20;;;16.30;;
26106;SDS011;13866;50.748;12.630;2023-05-20T11:37:09;17.77;;;16.17;;
26106;SDS011;13866;50.748;12.630;2023-05-20T11:39:36;17.37;;;15.87;;
26106;SDS011;13866;50.748;12.630;2023-05-20T11:42:02;17.43;;;15.83;;
26106;SDS011;13866;50.748;12.630;2023-05-20T11:44:30;19.07;;;17.07;;
26106;SDS011;13866;50.748;12.630;2023-05-20T11:47:05;18.17;;;16.57;;
26106;SDS011;13866;50.748;12.630;2023-05-20T11:49:30;17.13;;;15.40;;
26106;SDS011;13866;50.748;12.630;2023-05-20T11:52:03;18.10;;;16.30;;
26106;SDS011;13866;50.748;12.630;2023-05-20T11:54:35;17.87;;;16.10;;
26106;SDS011;13866;50.748;12.630;2023-05-20T11:57:19;18.63;;;15.20;;
26106;SDS011;13866;50.748;12.630;2023-05-20T11:59:45;17.03;;;15.63;;
26106;SDS011;13866;50.748;12.630;2023-05-20T12:02:10;17.40;;;15.47;;
26106;SDS011;13866;50.748;12.630;2023-05-20T12:04:36;17.23;;;15.67;;
26106;SDS011;13866;50.748;12.630;2023-05-20T12:07:11;18.10;;;16.20;;
26106;SDS011;13866;50.748;12.630;2023-05-20T12:09:39;15.50;;;14.17;;
26106;SDS011;13866;50.748;12.630;2023-05-20T12:12:05;13.90;;;12.90;;
26106;SDS011;13866;50.748;12.630;2023-05-20T12:14:46;16.20;;;14.83;;
26106;SDS011;13866;50.748;12.630;2023-05-20T12:17:11;15.10;;;13.53;;
26106;SDS011;13866;50.748;12.630;2023-05-20T12:19:37;16.90;;;15.50;;
26106;SDS011;13866;50.748;12.630;2023-05-20T12:22:02;15.70;;;14.30;;
26106;SDS011;13866;50.748;12.630;2023-05-20T12:24:28;15.33;;;13.97;;
26106;SDS011;13866;50.748;12.630;2023-05-20T12:26:53;21.33;;;15.03;;
26106;SDS011;13866;50.748;12.630;2023-05-20T12:29:31;16.87;;;15.30;;
26106;SDS011;13866;50.748;12.630;2023-05-20T12:31:57;14.67;;;13.63;;
26106;SDS011;13866;50.748;12.630;2023-05-20T12:34:23;17.30;;;15.53;;
26106;SDS011;13866;50.748;12.630;2023-05-20T12:37:06;16.90;;;15.20;;
26106;SDS011;13866;50.748;12.630;2023-05-20T12:39:32;14.80;;;13.60;;
26106;SDS011;13866;50.748;12.630;2023-05-20T12:41:57;13.20;;;11.87;;
26106;SDS011;13866;50.748;12.630;2023-05-20T12:44:23;15.67;;;14.47;;
26106;SDS011;13866;50.748;12.630;2023-05-20T12:46:48;13.37;;;12.57;;
26106;SDS011;13866;50.748;12.630;2023-05-20T12:49:14;13.87;;;12.43;;
26106;SDS011;13866;50.748;12.630;2023-05-20T12:51:39;13.90;;;12.70;;
26106;SDS011;13866;50.748;12.630;2023-05-20T12:54:05;14.17;;;12.87;;
26106;SDS011;13866;50.748;12.630;2023-05-20T12:56:30;17.93;;;11.80;;
26106;SDS011;13866;50.748;12.630;2023-05-20T12:58:56;14.30;;;11.47;;
26106;SDS011;13866;50.748;12.630;2023-05-20T13:01:22;16.90;;;12.33;;
26106;SDS011;13866;50.748;12.630;2023-05-20T13:03:47;12.80;;;12.00;;
26106;SDS011;13866;50.748;12.630;2023-05-20T13:06:16;14.40;;;12.50;;
26106;SDS011;13866;50.748;12.630;2023-05-20T13:09:01;13.47;;;12.23;;
26106;SDS011;13866;50.748;12.630;2023-05-20T13:11:44;11.27;;;10.57;;
26106;SDS011;13866;50.748;12.630;2023-05-20T13:14:21;13.13;;;11.80;;
26106;SDS011;13866;50.748;12.630;2023-05-20T13:16:48;13.20;;;12.10;;
26106;SDS011;13866;50.748;12.630;2023-05-20T13:19:14;12.53;;;11.67;;
26106;SDS011;13866;50.748;12.630;2023-05-20T13:21:39;12.10;;;11.20;;
26106;SDS011;13866;50.748;12.630;2023-05-20T13:24:05;13.23;;;12.17;;
26106;SDS011;13866;50.748;12.630;2023-05-20T13:26:30;15.10;;;11.80;;
26106;SDS011;13866;50.748;12.630;2023-05-20T13:28:59;12.37;;;11.17;;
26106;SDS011;13866;50.748;12.630;2023-05-20T13:31:42;13.47;;;12.20;;
26106;SDS011;13866;50.748;12.630;2023-05-20T13:34:08;14.43;;;10.27;;
26106;SDS011;13866;50.748;12.630;2023-05-20T13:36:34;18.23;;;11.87;;
26106;SDS011;13866;50.748;12.630;2023-05-20T13:38:59;15.53;;;14.23;;
26106;SDS011;13866;50.748;12.630;2023-05-20T13:41:25;14.23;;;12.93;;
26106;SDS011;13866;50.748;12.630;2023-05-20T13:43:51;20.00;;;13.60;;
26106;SDS011;13866;50.748;12.630;2023-05-20T13:46:17;14.40;;;13.20;;
26106;SDS011;13866;50.748;12.630;2023-05-20T13:48:42;21.33;;;13.30;;
26106;SDS011;13866;50.748;12.630;2023-05-20T13:54:07;14.57;;;12.97;;
26106;SDS011;13866;50.748;12.630;2023-05-20T13:56:32;15.37;;;13.77;;
26106;SDS011;13866;50.748;12.630;2023-05-20T13:58:58;13.93;;;12.70;;
26106;SDS011;13866;50.748;12.630;2023-05-20T14:01:23;14.77;;;13.57;;
26106;SDS011;13866;50.748;12.630;2023-05-20T14:03:49;20.93;;;13.87;;
26106;SDS011;13866;50.748;12.630;2023-05-20T14:06:14;14.60;;;12.40;;
26106;SDS011;13866;50.748;12.630;2023-05-20T14:08:43;13.33;;;12.20;;
26106;SDS011;13866;50.748;12.630;2023-05-20T14:11:27;14.07;;;12.73;;
26106;SDS011;13866;50.748;12.630;2023-05-20T14:13:53;13.13;;;11.80;;
26106;SDS011;13866;50.748;12.630;2023-05-20T14:16:18;14.80;;;13.27;;
26106;SDS011;13866;50.748;12.630;2023-05-20T14:18:44;16.23;;;12.67;;
26106;SDS011;13866;50.748;12.630;2023-05-20T14:21:10;15.23;;;14.03;;
26106;SDS011;13866;50.748;12.630;2023-05-20T14:23:35;15.40;;;13.63;;
26106;SDS011;13866;50.748;12.630;2023-05-20T14:26:01;13.73;;;12.40;;
26106;SDS011;13866;50.748;12.630;2023-05-20T14:28:27;14.97;;;13.67;;
26106;SDS011;13866;50.748;12.630;2023-05-20T14:30:52;14.73;;;13.23;;
26106;SDS011;13866;50.748;12.630;2023-05-20T14:33:18;14.20;;;12.97;;